sensor_id;sensor_type;location;lat;lon;timestamp;temperature;humidity
5134;DHT22;2585;48.696;10.066;2024-01-15T00:00:17;-4.40;1.00
5134;DHT22;2585;48.696;10.066;2024-01-15T00:02:44;-4.30;1.00
5134;DHT22;2585;48.696;10.066;2024-01-15T00:05:11;-4.20;1.00
5134;DHT22;2585;48.696;10.066;2024-01-15T00:07:38;-4.20;1.00
5134;DHT22;2585;48.696;10.066;2024-01-15T00:10:05;-4.20;1.00
5134;DHT22;2585;48.696;10.066;2024-01-15T00:12:32;-4.10;1.00
5134;DHT22;2585;48.696;10.066;2024-01-15T00:14:59;-4.10;92.80
5134;DHT22;2585;48.696;10.066;2024-01-15T00:17:26;-4.10;91.10
5134;DHT22;2585;48.696;10.066;2024-01-15T00:19:53;-4.10;88.90
5134;DHT22;2585;48.696;10.066;2024-01-15T00:22:20;-4.00;87.10
5134;DHT22;2585;48.696;10.066;2024-01-15T00:24:46;-4.00;84.80
5134;DHT22;2585;48.696;10.066;2024-01-15T00:27:13;-4.00;83.00
5134;DHT22;2585;48.696;10.066;2024-01-15T00:29:40;-4.00;83.80
5134;DHT22;2585;48.696;10.066;2024-01-15T00:32:07;-4.00;84.50
5134;DHT22;2585;48.696;10.066;2024-01-15T00:34:34;-4.00;85.40
5134;DHT22;2585;48.696;10.066;2024-01-15T00:37:01;-4.00;85.30
5134;DHT22;2585;48.696;10.066;2024-01-15T00:39:28;-3.90;83.90
5134;DHT22;2585;48.696;10.066;2024-01-15T00:41:55;-4.00;84.50
5134;DHT22;2585;48.696;10.066;2024-01-15T00:44:21;-4.00;84.10
5134;DHT22;2585;48.696;10.066;2024-01-15T00:46:48;-4.10;84.30
5134;DHT22;2585;48.696;10.066;2024-01-15T00:49:15;-4.10;85.20
5134;DHT22;2585;48.696;10.066;2024-01-15T00:51:42;-4.10;85.50
5134;DHT22;2585;48.696;10.066;2024-01-15T00:54:09;-4.20;86.00
5134;DHT22;2585;48.696;10.066;2024-01-15T00:56:36;-4.30;87.70
5134;DHT22;2585;48.696;10.066;2024-01-15T00:59:03;-4.30;88.30
5134;DHT22;2585;48.696;10.066;2024-01-15T01:01:30;-4.30;88.70
5134;DHT22;2585;48.696;10.066;2024-01-15T01:03:57;-4.40;89.30
5134;DHT22;2585;48.696;10.066;2024-01-15T01:06:24;-4.40;90.10
5134;DHT22;2585;48.696;10.066;2024-01-15T01:08:51;-4.40;90.50
5134;DHT22;2585;48.696;10.066;2024-01-15T01:11:18;-4.40;91.70
5134;DHT22;2585;48.696;10.066;2024-01-15T01:13:45;-4.50;92.50
5134;DHT22;2585;48.696;10.066;2024-01-15T01:16:12;-4.50;1.00
5134;DHT22;2585;48.696;10.066;2024-01-15T01:18:39;-4.50;1.00
5134;DHT22;2585;48.696;10.066;2024-01-15T01:21:06;-4.50;1.00
5134;DHT22;2585;48.696;10.066;2024-01-15T01:23:33;-4.50;1.00
5134;DHT22;2585;48.696;10.066;2024-01-15T01:26:00;-4.60;1.00
5134;DHT22;2585;48.696;10.066;2024-01-15T01:28:27;-4.50;1.00
5134;DHT22;2585;48.696;10.066;2024-01-15T01:30:54;-4.50;1.00
5134;DHT22;2585;48.696;10.066;2024-01-15T01:33:21;-4.50;1.00
5134;DHT22;2585;48.696;10.066;2024-01-15T01:35:48;-4.50;1.00
5134;DHT22;2585;48.696;10.066;2024-01-15T01:38:15;-4.50;1.00
5134;DHT22;2585;48.696;10.066;2024-01-15T01:40:42;-4.40;1.00
5134;DHT22;2585;48.696;10.066;2024-01-15T01:43:10;-4.40;1.00
5134;DHT22;2585;48.696;10.066;2024-01-15T01:45:37;-4.40;1.00
5134;DHT22;2585;48.696;10.066;2024-01-15T01:48:05;-4.30;1.00
5134;DHT22;2585;48.696;10.066;2024-01-15T01:50:32;-4.30;1.00
5134;DHT22;2585;48.696;10.066;2024-01-15T01:53:01;-4.30;1.00
5134;DHT22;2585;48.696;10.066;2024-01-15T01:55:31;-4.30;1.00
5134;DHT22;2585;48.696;10.066;2024-01-15T01:58:00;-4.30;1.00
5134;DHT22;2585;48.696;10.066;2024-01-15T02:00:28;-4.30;1.00
5134;DHT22;2585;48.696;10.066;2024-01-15T02:02:55;-4.30;1.00
5134;DHT22;2585;48.696;10.066;2024-01-15T02:05:22;-4.20;1.00
5134;DHT22;2585;48.696;10.066;2024-01-15T02:07:49;-4.20;1.00
5134;DHT22;2585;48.696;10.066;2024-01-15T02:10:16;-4.10;1.00
5134;DHT22;2585;48.696;10.066;2024-01-15T02:12:43;-4.10;1.00
5134;DHT22;2585;48.696;10.066;2024-01-15T02:15:11;-4.00;1.00
5134;DHT22;2585;48.696;10.066;2024-01-15T02:18:00;-4.00;1.00
5134;DHT22;2585;48.696;10.066;2024-01-15T02:20:28;-3.90;1.00
5134;DHT22;2585;48.696;10.066;2024-01-15T02:23:08;-3.90;1.00
5134;DHT22;2585;48.696;10.066;2024-01-15T02:25:43;-3.80;1.00
5134;DHT22;2585;48.696;10.066;2024-01-15T02:28:16;-3.90;1.00
5134;DHT22;2585;48.696;10.066;2024-01-15T02:30:43;-3.80;1.00
5134;DHT22;2585;48.696;10.066;2024-01-15T02:33:11;-3.80;1.00
5134;DHT22;2585;48.696;10.066;2024-01-15T02:35:39;-3.70;1.00
5134;DHT22;2585;48.696;10.066;2024-01-15T02:38:06;-3.60;1.00
5134;DHT22;2585;48.696;10.066;2024-01-15T02:40:33;-3.60;1.00
5134;DHT22;2585;48.696;10.066;2024-01-15T02:43:00;-3.50;1.00
5134;DHT22;2585;48.696;10.066;2024-01-15T02:45:27;-3.50;1.00
5134;DHT22;2585;48.696;10.066;2024-01-15T02:47:54;-3.40;1.00
5134;DHT22;2585;48.696;10.066;2024-01-15T02:50:21;-3.40;1.00
5134;DHT22;2585;48.696;10.066;2024-01-15T02:52:48;-3.30;1.00
5134;DHT22;2585;48.696;10.066;2024-01-15T02:55:15;-3.30;1.00
5134;DHT22;2585;48.696;10.066;2024-01-15T02:57:42;-3.30;1.00
5134;DHT22;2585;48.696;10.066;2024-01-15T03:00:10;-3.20;1.00
5134;DHT22;2585;48.696;10.066;2024-01-15T03:02:37;-3.20;1.00
5134;DHT22;2585;48.696;10.066;2024-01-15T03:05:13;-3.10;1.00
5134;DHT22;2585;48.696;10.066;2024-01-15T03:07:40;-3.10;1.00
5134;DHT22;2585;48.696;10.066;2024-01-15T03:10:07;-3.10;1.00
5134;DHT22;2585;48.696;10.066;2024-01-15T03:12:34;-3.10;1.00
5134;DHT22;2585;48.696;10.066;2024-01-15T03:15:01;-3.10;1.00
5134;DHT22;2585;48.696;10.066;2024-01-15T03:17:28;-3.10;1.00
5134;DHT22;2585;48.696;10.066;2024-01-15T03:19:55;-3.10;1.00
5134;DHT22;2585;48.696;10.066;2024-01-15T03:22:22;-3.10;1.00
5134;DHT22;2585;48.696;10.066;2024-01-15T03:24:49;-3.10;1.00
5134;DHT22;2585;48.696;10.066;2024-01-15T03:27:16;-3.10;1.00
5134;DHT22;2585;48.696;10.066;2024-01-15T03:29:43;-3.00;1.00
5134;DHT22;2585;48.696;10.066;2024-01-15T03:32:10;-3.00;1.00
5134;DHT22;2585;48.696;10.066;2024-01-15T03:34:36;-3.00;1.00
5134;DHT22;2585;48.696;10.066;2024-01-15T03:37:03;-3.00;1.00
5134;DHT22;2585;48.696;10.066;2024-01-15T03:39:30;-3.00;1.00
5134;DHT22;2585;48.696;10.066;2024-01-15T03:41:57;-3.00;1.00
5134;DHT22;2585;48.696;10.066;2024-01-15T03:44:24;-2.90;1.00
5134;DHT22;2585;48.696;10.066;2024-01-15T03:46:51;-2.90;1.00
5134;DHT22;2585;48.696;10.066;2024-01-15T03:49:18;-2.90;1.00
5134;DHT22;2585;48.696;10.066;2024-01-15T03:51:45;-2.90;1.00
5134;DHT22;2585;48.696;10.066;2024-01-15T03:54:12;-2.90;1.00
5134;DHT22;2585;48.696;10.066;2024-01-15T03:56:39;-2.90;1.00
5134;DHT22;2585;48.696;10.066;2024-01-15T03:59:05;-2.90;1.00
5134;DHT22;2585;48.696;10.066;2024-01-15T04:01:32;-2.80;1.00
5134;DHT22;2585;48.696;10.066;2024-01-15T04:03:59;-2.80;1.00
5134;DHT22;2585;48.696;10.066;2024-01-15T04:06:26;-2.80;1.00
5134;DHT22;2585;48.696;10.066;2024-01-15T04:08:53;-2.80;1.00
5134;DHT22;2585;48.696;10.066;2024-01-15T04:11:20;-2.70;1.00
5134;DHT22;2585;48.696;10.066;2024-01-15T04:13:47;-2.70;1.00
5134;DHT22;2585;48.696;10.066;2024-01-15T04:16:13;-2.70;1.00
5134;DHT22;2585;48.696;10.066;2024-01-15T04:18:40;-2.70;1.00
5134;DHT22;2585;48.696;10.066;2024-01-15T04:21:07;-2.60;1.00
5134;DHT22;2585;48.696;10.066;2024-01-15T04:23:34;-2.60;1.00
5134;DHT22;2585;48.696;10.066;2024-01-15T04:26:01;-2.60;1.00
5134;DHT22;2585;48.696;10.066;2024-01-15T04:28:27;-2.50;1.00
5134;DHT22;2585;48.696;10.066;2024-01-15T04:30:54;-2.60;1.00
5134;DHT22;2585;48.696;10.066;2024-01-15T04:33:21;-2.60;1.00
5134;DHT22;2585;48.696;10.066;2024-01-15T04:35:49;-2.60;1.00
5134;DHT22;2585;48.696;10.066;2024-01-15T04:38:16;-2.60;1.00
5134;DHT22;2585;48.696;10.066;2024-01-15T04:40:42;-2.60;93.60
5134;DHT22;2585;48.696;10.066;2024-01-15T04:43:09;-2.50;93.30
5134;DHT22;2585;48.696;10.066;2024-01-15T04:45:36;-2.50;92.70
5134;DHT22;2585;48.696;10.066;2024-01-15T04:48:03;-2.50;91.40
5134;DHT22;2585;48.696;10.066;2024-01-15T04:50:30;-2.50;91.10
5134;DHT22;2585;48.696;10.066;2024-01-15T04:52:57;-2.50;91.20
5134;DHT22;2585;48.696;10.066;2024-01-15T04:55:24;-2.50;90.00
5134;DHT22;2585;48.696;10.066;2024-01-15T04:57:50;-2.40;86.00
5134;DHT22;2585;48.696;10.066;2024-01-15T05:00:17;-2.40;83.40
5134;DHT22;2585;48.696;10.066;2024-01-15T05:02:44;-2.50;82.90
5134;DHT22;2585;48.696;10.066;2024-01-15T05:05:11;-2.40;83.90
5134;DHT22;2585;48.696;10.066;2024-01-15T05:07:38;-2.50;82.70
5134;DHT22;2585;48.696;10.066;2024-01-15T05:10:05;-2.50;85.30
5134;DHT22;2585;48.696;10.066;2024-01-15T05:12:34;-2.50;86.30
5134;DHT22;2585;48.696;10.066;2024-01-15T05:15:01;-2.50;88.00
5134;DHT22;2585;48.696;10.066;2024-01-15T05:17:27;-2.50;89.10
5134;DHT22;2585;48.696;10.066;2024-01-15T05:19:54;-2.50;90.60
5134;DHT22;2585;48.696;10.066;2024-01-15T05:22:21;-2.50;91.20
5134;DHT22;2585;48.696;10.066;2024-01-15T05:24:51;-2.50;90.60
5134;DHT22;2585;48.696;10.066;2024-01-15T05:27:18;-2.50;90.70
5134;DHT22;2585;48.696;10.066;2024-01-15T05:29:45;-2.50;90.80
5134;DHT22;2585;48.696;10.066;2024-01-15T05:32:12;-2.50;90.30
5134;DHT22;2585;48.696;10.066;2024-01-15T05:34:38;-2.50;90.10
5134;DHT22;2585;48.696;10.066;2024-01-15T05:37:05;-2.50;90.20
5134;DHT22;2585;48.696;10.066;2024-01-15T05:39:32;-2.50;91.00
5134;DHT22;2585;48.696;10.066;2024-01-15T05:41:59;-2.50;91.20
5134;DHT22;2585;48.696;10.066;2024-01-15T05:44:27;-2.50;92.20
5134;DHT22;2585;48.696;10.066;2024-01-15T05:46:53;-2.50;92.00
5134;DHT22;2585;48.696;10.066;2024-01-15T05:49:21;-2.50;92.00
5134;DHT22;2585;48.696;10.066;2024-01-15T05:51:48;-2.50;92.60
5134;DHT22;2585;48.696;10.066;2024-01-15T05:54:15;-2.50;91.90
5134;DHT22;2585;48.696;10.066;2024-01-15T05:56:42;-2.40;92.00
5134;DHT22;2585;48.696;10.066;2024-01-15T05:59:08;-2.40;91.30
5134;DHT22;2585;48.696;10.066;2024-01-15T06:01:38;-2.40;90.20
5134;DHT22;2585;48.696;10.066;2024-01-15T06:04:05;-2.40;88.40
5134;DHT22;2585;48.696;10.066;2024-01-15T06:06:33;-2.40;89.70
5134;DHT22;2585;48.696;10.066;2024-01-15T06:09:00;-2.40;90.40
5134;DHT22;2585;48.696;10.066;2024-01-15T06:11:32;-2.40;90.60
5134;DHT22;2585;48.696;10.066;2024-01-15T06:13:59;-2.40;91.20
5134;DHT22;2585;48.696;10.066;2024-01-15T06:16:29;-2.40;91.30
5134;DHT22;2585;48.696;10.066;2024-01-15T06:18:56;-2.40;91.40
5134;DHT22;2585;48.696;10.066;2024-01-15T06:21:23;-2.40;91.10
5134;DHT22;2585;48.696;10.066;2024-01-15T06:23:50;-2.40;91.40
5134;DHT22;2585;48.696;10.066;2024-01-15T06:26:17;-2.40;91.10
5134;DHT22;2585;48.696;10.066;2024-01-15T06:28:43;-2.40;91.30
5134;DHT22;2585;48.696;10.066;2024-01-15T06:31:10;-2.40;91.30
5134;DHT22;2585;48.696;10.066;2024-01-15T06:33:37;-2.40;90.90
5134;DHT22;2585;48.696;10.066;2024-01-15T06:36:05;-2.30;90.00
5134;DHT22;2585;48.696;10.066;2024-01-15T06:38:32;-2.30;87.40
5134;DHT22;2585;48.696;10.066;2024-01-15T06:40:59;-2.30;86.70
5134;DHT22;2585;48.696;10.066;2024-01-15T06:43:26;-2.30;86.20
5134;DHT22;2585;48.696;10.066;2024-01-15T06:45:52;-2.30;86.00
5134;DHT22;2585;48.696;10.066;2024-01-15T06:48:19;-2.30;81.80
5134;DHT22;2585;48.696;10.066;2024-01-15T06:50:46;-2.20;80.00
5134;DHT22;2585;48.696;10.066;2024-01-15T06:53:13;-2.20;78.50
5134;DHT22;2585;48.696;10.066;2024-01-15T06:55:40;-2.20;79.80
5134;DHT22;2585;48.696;10.066;2024-01-15T06:58:07;-2.30;81.50
5134;DHT22;2585;48.696;10.066;2024-01-15T07:00:34;-2.30;82.10
5134;DHT22;2585;48.696;10.066;2024-01-15T07:03:01;-2.20;83.80
5134;DHT22;2585;48.696;10.066;2024-01-15T07:05:28;-2.20;83.50
5134;DHT22;2585;48.696;10.066;2024-01-15T07:07:56;-2.20;80.00
5134;DHT22;2585;48.696;10.066;2024-01-15T07:10:23;-2.20;78.20
5134;DHT22;2585;48.696;10.066;2024-01-15T07:12:50;-2.20;77.00
5134;DHT22;2585;48.696;10.066;2024-01-15T07:15:17;-2.20;78.00
5134;DHT22;2585;48.696;10.066;2024-01-15T07:17:44;-2.20;77.00
5134;DHT22;2585;48.696;10.066;2024-01-15T07:20:11;-2.20;77.30
5134;DHT22;2585;48.696;10.066;2024-01-15T07:22:38;-2.20;76.80
5134;DHT22;2585;48.696;10.066;2024-01-15T07:25:05;-2.20;76.20
5134;DHT22;2585;48.696;10.066;2024-01-15T07:27:33;-2.10;70.60
5134;DHT22;2585;48.696;10.066;2024-01-15T07:30:00;-2.20;70.60
5134;DHT22;2585;48.696;10.066;2024-01-15T07:32:29;-2.10;70.70
5134;DHT22;2585;48.696;10.066;2024-01-15T07:34:56;-2.20;71.50
5134;DHT22;2585;48.696;10.066;2024-01-15T07:37:23;-2.10;74.10
5134;DHT22;2585;48.696;10.066;2024-01-15T07:39:50;-2.10;74.20
5134;DHT22;2585;48.696;10.066;2024-01-15T07:42:17;-2.10;73.40
5134;DHT22;2585;48.696;10.066;2024-01-15T07:44:44;-2.10;70.70
5134;DHT22;2585;48.696;10.066;2024-01-15T07:47:11;-2.10;68.70
5134;DHT22;2585;48.696;10.066;2024-01-15T07:49:38;-2.10;67.20
5134;DHT22;2585;48.696;10.066;2024-01-15T07:52:06;-2.00;63.20
5134;DHT22;2585;48.696;10.066;2024-01-15T07:54:33;-2.00;59.80
5134;DHT22;2585;48.696;10.066;2024-01-15T07:57:01;-2.00;55.30
5134;DHT22;2585;48.696;10.066;2024-01-15T07:59:29;-2.00;60.60
5134;DHT22;2585;48.696;10.066;2024-01-15T08:01:58;-2.00;62.90
5134;DHT22;2585;48.696;10.066;2024-01-15T08:04:25;-1.90;58.70
5134;DHT22;2585;48.696;10.066;2024-01-15T08:06:52;-1.90;55.10
5134;DHT22;2585;48.696;10.066;2024-01-15T08:09:19;-1.90;46.00
5134;DHT22;2585;48.696;10.066;2024-01-15T08:11:46;-1.90;31.90
5134;DHT22;2585;48.696;10.066;2024-01-15T08:14:13;-1.90;30.00
5134;DHT22;2585;48.696;10.066;2024-01-15T08:16:40;-1.90;42.40
5134;DHT22;2585;48.696;10.066;2024-01-15T08:19:07;-1.80;39.70
5134;DHT22;2585;48.696;10.066;2024-01-15T08:21:34;-1.80;39.90
5134;DHT22;2585;48.696;10.066;2024-01-15T08:24:02;-1.80;31.70
5134;DHT22;2585;48.696;10.066;2024-01-15T08:26:29;-1.80;19.40
5134;DHT22;2585;48.696;10.066;2024-01-15T08:28:56;-1.80;28.40
5134;DHT22;2585;48.696;10.066;2024-01-15T08:31:24;-1.70;23.10
5134;DHT22;2585;48.696;10.066;2024-01-15T08:33:51;-1.70;16.30
5134;DHT22;2585;48.696;10.066;2024-01-15T08:36:18;-1.60;16.00
5134;DHT22;2585;48.696;10.066;2024-01-15T08:38:45;-1.60;4.30
5134;DHT22;2585;48.696;10.066;2024-01-15T08:41:12;-1.60;1.00
5134;DHT22;2585;48.696;10.066;2024-01-15T08:43:38;-1.60;1.00
5134;DHT22;2585;48.696;10.066;2024-01-15T08:46:06;-1.50;1.00
5134;DHT22;2585;48.696;10.066;2024-01-15T08:48:34;-1.50;1.00
5134;DHT22;2585;48.696;10.066;2024-01-15T08:51:01;-1.40;1.00
5134;DHT22;2585;48.696;10.066;2024-01-15T08:53:27;-1.40;1.00
5134;DHT22;2585;48.696;10.066;2024-01-15T08:55:54;-1.40;1.00
5134;DHT22;2585;48.696;10.066;2024-01-15T08:58:23;-1.30;1.00
5134;DHT22;2585;48.696;10.066;2024-01-15T09:00:51;-1.30;89.30
5134;DHT22;2585;48.696;10.066;2024-01-15T09:03:18;-1.20;85.20
5134;DHT22;2585;48.696;10.066;2024-01-15T09:05:45;-1.20;76.20
5134;DHT22;2585;48.696;10.066;2024-01-15T09:08:12;-1.20;60.00
5134;DHT22;2585;48.696;10.066;2024-01-15T09:10:39;-1.20;61.20
5134;DHT22;2585;48.696;10.066;2024-01-15T09:13:07;-1.20;40.70
5134;DHT22;2585;48.696;10.066;2024-01-15T09:15:34;-1.30;1.00
5134;DHT22;2585;48.696;10.066;2024-01-15T09:18:01;-1.20;1.00
5134;DHT22;2585;48.696;10.066;2024-01-15T09:20:33;-1.20;75.50
5134;DHT22;2585;48.696;10.066;2024-01-15T09:23:00;-1.20;1.00
5134;DHT22;2585;48.696;10.066;2024-01-15T09:25:27;-1.20;1.00
5134;DHT22;2585;48.696;10.066;2024-01-15T09:27:54;-1.20;1.00
5134;DHT22;2585;48.696;10.066;2024-01-15T09:30:21;-1.20;1.00
5134;DHT22;2585;48.696;10.066;2024-01-15T09:32:48;-1.10;93.00
5134;DHT22;2585;48.696;10.066;2024-01-15T09:35:15;-1.10;65.50
5134;DHT22;2585;48.696;10.066;2024-01-15T09:37:42;-1.20;1.00
5134;DHT22;2585;48.696;10.066;2024-01-15T09:40:14;-1.10;4.30
5134;DHT22;2585;48.696;10.066;2024-01-15T09:42:42;-1.10;1.00
5134;DHT22;2585;48.696;10.066;2024-01-15T09:45:10;-1.10;83.30
5134;DHT22;2585;48.696;10.066;2024-01-15T09:47:37;-1.10;90.70
5134;DHT22;2585;48.696;10.066;2024-01-15T09:50:10;-1.00;78.20
5134;DHT22;2585;48.696;10.066;2024-01-15T09:52:38;-1.00;68.10
5134;DHT22;2585;48.696;10.066;2024-01-15T09:55:05;-1.00;79.10
5134;DHT22;2585;48.696;10.066;2024-01-15T09:57:32;-0.90;1.00
5134;DHT22;2585;48.696;10.066;2024-01-15T10:00:02;-0.90;72.40
5134;DHT22;2585;48.696;10.066;2024-01-15T10:02:31;-0.80;93.80
5134;DHT22;2585;48.696;10.066;2024-01-15T10:04:58;-0.80;90.60
5134;DHT22;2585;48.696;10.066;2024-01-15T10:07:25;-0.70;89.00
5134;DHT22;2585;48.696;10.066;2024-01-15T10:09:52;-0.70;27.90
5134;DHT22;2585;48.696;10.066;2024-01-15T10:12:22;-0.70;10.90
5134;DHT22;2585;48.696;10.066;2024-01-15T10:14:50;-0.70;56.20
5134;DHT22;2585;48.696;10.066;2024-01-15T10:17:17;-0.70;64.10
5134;DHT22;2585;48.696;10.066;2024-01-15T10:19:48;-0.70;7.10
5134;DHT22;2585;48.696;10.066;2024-01-15T10:22:17;-0.60;5.30
5134;DHT22;2585;48.696;10.066;2024-01-15T10:24:46;-0.60;93.60
5134;DHT22;2585;48.696;10.066;2024-01-15T10:27:15;-0.60;80.00
5134;DHT22;2585;48.696;10.066;2024-01-15T10:29:42;-0.50;1.00
5134;DHT22;2585;48.696;10.066;2024-01-15T10:32:11;-0.60;1.00
5134;DHT22;2585;48.696;10.066;2024-01-15T10:34:42;-0.60;1.00
5134;DHT22;2585;48.696;10.066;2024-01-15T10:37:10;-0.70;4.30
5134;DHT22;2585;48.696;10.066;2024-01-15T10:39:37;-0.70;70.20
5134;DHT22;2585;48.696;10.066;2024-01-15T10:42:06;-0.60;86.00
5134;DHT22;2585;48.696;10.066;2024-01-15T10:44:34;-0.60;82.50
5134;DHT22;2585;48.696;10.066;2024-01-15T10:47:01;-0.60;82.40
5134;DHT22;2585;48.696;10.066;2024-01-15T10:49:28;-0.60;60.60
5134;DHT22;2585;48.696;10.066;2024-01-15T10:52:01;-0.60;64.40
5134;DHT22;2585;48.696;10.066;2024-01-15T10:54:29;-0.60;1.00
5134;DHT22;2585;48.696;10.066;2024-01-15T10:56:57;-0.60;1.00
5134;DHT22;2585;48.696;10.066;2024-01-15T10:59:24;-0.60;91.80
5134;DHT22;2585;48.696;10.066;2024-01-15T11:01:52;-0.50;78.90
5134;DHT22;2585;48.696;10.066;2024-01-15T11:04:22;-0.50;87.40
5134;DHT22;2585;48.696;10.066;2024-01-15T11:06:53;-0.50;93.30
5134;DHT22;2585;48.696;10.066;2024-01-15T11:09:22;-0.50;74.50
5134;DHT22;2585;48.696;10.066;2024-01-15T11:11:52;-0.50;72.30
5134;DHT22;2585;48.696;10.066;2024-01-15T11:17:02;-0.50;1.00
5134;DHT22;2585;48.696;10.066;2024-01-15T11:22:10;-0.50;1.00
5134;DHT22;2585;48.696;10.066;2024-01-15T11:24:40;-0.50;1.00
5134;DHT22;2585;48.696;10.066;2024-01-15T11:27:08;-0.50;1.00
5134;DHT22;2585;48.696;10.066;2024-01-15T11:29:38;-0.50;1.00
5134;DHT22;2585;48.696;10.066;2024-01-15T11:32:09;-0.50;1.00
5134;DHT22;2585;48.696;10.066;2024-01-15T11:34:56;-0.50;40.60
5134;DHT22;2585;48.696;10.066;2024-01-15T11:37:27;-0.50;5.80
5134;DHT22;2585;48.696;10.066;2024-01-15T11:39:55;-0.50;15.70
5134;DHT22;2585;48.696;10.066;2024-01-15T11:42:23;-0.50;68.40
5134;DHT22;2585;48.696;10.066;2024-01-15T11:44:50;-0.50;1.00
5134;DHT22;2585;48.696;10.066;2024-01-15T11:50:09;-0.60;1.00
5134;DHT22;2585;48.696;10.066;2024-01-15T11:52:38;-0.60;83.00
5134;DHT22;2585;48.696;10.066;2024-01-15T11:55:17;-0.70;1.00
5134;DHT22;2585;48.696;10.066;2024-01-15T11:57:49;-0.90;69.50
5134;DHT22;2585;48.696;10.066;2024-01-15T12:00:17;-0.90;61.10
5134;DHT22;2585;48.696;10.066;2024-01-15T12:02:46;-1.00;1.00
5134;DHT22;2585;48.696;10.066;2024-01-15T12:05:16;-1.00;1.00
5134;DHT22;2585;48.696;10.066;2024-01-15T12:07:44;-1.00;1.00
5134;DHT22;2585;48.696;10.066;2024-01-15T12:10:15;-1.10;23.10
5134;DHT22;2585;48.696;10.066;2024-01-15T12:15:47;-1.10;73.30
5134;DHT22;2585;48.696;10.066;2024-01-15T12:18:16;-1.20;86.40
5134;DHT22;2585;48.696;10.066;2024-01-15T12:20:45;-1.20;92.70
5134;DHT22;2585;48.696;10.066;2024-01-15T12:23:13;-1.30;1.00
5134;DHT22;2585;48.696;10.066;2024-01-15T12:25:41;-1.30;1.00
5134;DHT22;2585;48.696;10.066;2024-01-15T12:28:08;-1.40;1.00
5134;DHT22;2585;48.696;10.066;2024-01-15T12:30:35;-1.40;1.00
5134;DHT22;2585;48.696;10.066;2024-01-15T12:33:04;-1.30;1.00
5134;DHT22;2585;48.696;10.066;2024-01-15T12:35:33;-1.20;1.00
5134;DHT22;2585;48.696;10.066;2024-01-15T12:38:00;-1.30;1.00
5134;DHT22;2585;48.696;10.066;2024-01-15T12:40:32;-1.30;1.00
5134;DHT22;2585;48.696;10.066;2024-01-15T12:43:05;-1.30;1.00
5134;DHT22;2585;48.696;10.066;2024-01-15T12:45:32;-1.30;1.00
5134;DHT22;2585;48.696;10.066;2024-01-15T12:47:59;-1.30;7.40
5134;DHT22;2585;48.696;10.066;2024-01-15T12:50:27;-1.30;15.70
5134;DHT22;2585;48.696;10.066;2024-01-15T12:52:54;-1.40;20.90
5134;DHT22;2585;48.696;10.066;2024-01-15T12:55:21;-1.30;26.60
5134;DHT22;2585;48.696;10.066;2024-01-15T12:57:48;-1.30;31.30
5134;DHT22;2585;48.696;10.066;2024-01-15T13:00:16;-1.30;35.80
5134;DHT22;2585;48.696;10.066;2024-01-15T13:02:43;-1.20;38.30
5134;DHT22;2585;48.696;10.066;2024-01-15T13:05:11;-1.20;40.40
5134;DHT22;2585;48.696;10.066;2024-01-15T13:07:41;-1.30;42.00
5134;DHT22;2585;48.696;10.066;2024-01-15T13:10:09;-1.20;45.40
5134;DHT22;2585;48.696;10.066;2024-01-15T13:12:37;-1.20;47.20
5134;DHT22;2585;48.696;10.066;2024-01-15T13:15:05;-1.20;46.30
5134;DHT22;2585;48.696;10.066;2024-01-15T13:17:32;-1.20;42.40
5134;DHT22;2585;48.696;10.066;2024-01-15T13:19:59;-1.10;29.20
5134;DHT22;2585;48.696;10.066;2024-01-15T13:22:27;-1.10;21.30
5134;DHT22;2585;48.696;10.066;2024-01-15T13:24:58;-1.00;1.70
5134;DHT22;2585;48.696;10.066;2024-01-15T13:27:26;-0.90;1.00
5134;DHT22;2585;48.696;10.066;2024-01-15T13:29:53;-0.90;1.00
5134;DHT22;2585;48.696;10.066;2024-01-15T13:32:24;-0.80;1.00
5134;DHT22;2585;48.696;10.066;2024-01-15T13:34:57;-0.80;1.00
5134;DHT22;2585;48.696;10.066;2024-01-15T13:37:24;-0.80;1.00
5134;DHT22;2585;48.696;10.066;2024-01-15T13:39:52;-0.70;1.00
5134;DHT22;2585;48.696;10.066;2024-01-15T13:42:20;-0.80;1.00
5134;DHT22;2585;48.696;10.066;2024-01-15T13:44:50;-0.80;1.00
5134;DHT22;2585;48.696;10.066;2024-01-15T13:47:17;-0.80;1.00
5134;DHT22;2585;48.696;10.066;2024-01-15T13:49:44;-0.90;1.00
5134;DHT22;2585;48.696;10.066;2024-01-15T13:52:11;-1.00;1.00
5134;DHT22;2585;48.696;10.066;2024-01-15T13:54:39;-1.00;6.20
5134;DHT22;2585;48.696;10.066;2024-01-15T13:57:16;-1.00;13.20
5134;DHT22;2585;48.696;10.066;2024-01-15T13:59:44;-1.00;20.80
5134;DHT22;2585;48.696;10.066;2024-01-15T14:02:11;-1.00;25.40
5134;DHT22;2585;48.696;10.066;2024-01-15T14:04:39;-1.00;27.20
5134;DHT22;2585;48.696;10.066;2024-01-15T14:07:06;-1.00;30.90
5134;DHT22;2585;48.696;10.066;2024-01-15T14:09:33;-1.00;33.80
5134;DHT22;2585;48.696;10.066;2024-01-15T14:12:00;-1.10;32.40
5134;DHT22;2585;48.696;10.066;2024-01-15T14:14:27;-1.00;36.50
5134;DHT22;2585;48.696;10.066;2024-01-15T14:16:54;-1.00;42.40
5134;DHT22;2585;48.696;10.066;2024-01-15T14:19:20;-1.00;47.40
5134;DHT22;2585;48.696;10.066;2024-01-15T14:21:48;-1.00;50.40
5134;DHT22;2585;48.696;10.066;2024-01-15T14:24:15;-1.10;54.40
5134;DHT22;2585;48.696;10.066;2024-01-15T14:26:44;-1.00;57.60
5134;DHT22;2585;48.696;10.066;2024-01-15T14:29:11;-1.10;58.70
5134;DHT22;2585;48.696;10.066;2024-01-15T14:31:38;-1.00;60.00
5134;DHT22;2585;48.696;10.066;2024-01-15T14:34:06;-1.00;60.50
5134;DHT22;2585;48.696;10.066;2024-01-15T14:36:34;-1.00;60.20
5134;DHT22;2585;48.696;10.066;2024-01-15T14:39:01;-1.00;60.90
5134;DHT22;2585;48.696;10.066;2024-01-15T14:41:29;-1.00;61.20
5134;DHT22;2585;48.696;10.066;2024-01-15T14:43:56;-1.00;61.10
5134;DHT22;2585;48.696;10.066;2024-01-15T14:46:24;-1.10;60.30
5134;DHT22;2585;48.696;10.066;2024-01-15T14:48:50;-1.10;60.10
5134;DHT22;2585;48.696;10.066;2024-01-15T14:51:17;-1.20;60.80
5134;DHT22;2585;48.696;10.066;2024-01-15T14:53:44;-1.20;62.20
5134;DHT22;2585;48.696;10.066;2024-01-15T14:56:11;-1.20;63.80
5134;DHT22;2585;48.696;10.066;2024-01-15T14:58:42;-1.20;65.00
5134;DHT22;2585;48.696;10.066;2024-01-15T15:01:09;-1.30;65.80
5134;DHT22;2585;48.696;10.066;2024-01-15T15:03:36;-1.30;66.60
5134;DHT22;2585;48.696;10.066;2024-01-15T15:06:04;-1.30;67.20
5134;DHT22;2585;48.696;10.066;2024-01-15T15:08:31;-1.30;67.40
5134;DHT22;2585;48.696;10.066;2024-01-15T15:10:58;-1.30;67.20
5134;DHT22;2585;48.696;10.066;2024-01-15T15:13:25;-1.30;66.40
5134;DHT22;2585;48.696;10.066;2024-01-15T15:16:10;-1.30;66.50
5134;DHT22;2585;48.696;10.066;2024-01-15T15:18:37;-1.30;67.10
5134;DHT22;2585;48.696;10.066;2024-01-15T15:21:04;-1.40;67.70
5134;DHT22;2585;48.696;10.066;2024-01-15T15:23:31;-1.40;68.50
5134;DHT22;2585;48.696;10.066;2024-01-15T15:25:58;-1.40;69.50
5134;DHT22;2585;48.696;10.066;2024-01-15T15:28:25;-1.40;70.40
5134;DHT22;2585;48.696;10.066;2024-01-15T15:30:52;-1.40;71.10
5134;DHT22;2585;48.696;10.066;2024-01-15T15:33:19;-1.40;70.80
5134;DHT22;2585;48.696;10.066;2024-01-15T15:35:46;-1.40;71.30
5134;DHT22;2585;48.696;10.066;2024-01-15T15:38:14;-1.50;71.60
5134;DHT22;2585;48.696;10.066;2024-01-15T15:40:41;-1.50;72.10
5134;DHT22;2585;48.696;10.066;2024-01-15T15:43:08;-1.50;72.20
5134;DHT22;2585;48.696;10.066;2024-01-15T15:45:35;-1.50;73.00
5134;DHT22;2585;48.696;10.066;2024-01-15T15:48:02;-1.60;74.10
5134;DHT22;2585;48.696;10.066;2024-01-15T15:50:29;-1.60;75.30
5134;DHT22;2585;48.696;10.066;2024-01-15T15:53:00;-1.60;76.20
5134;DHT22;2585;48.696;10.066;2024-01-15T15:55:28;-1.60;76.60
5134;DHT22;2585;48.696;10.066;2024-01-15T15:57:55;-1.60;74.80
5134;DHT22;2585;48.696;10.066;2024-01-15T16:00:23;-1.70;73.30
5134;DHT22;2585;48.696;10.066;2024-01-15T16:02:50;-1.70;71.50
5134;DHT22;2585;48.696;10.066;2024-01-15T16:05:17;-1.70;69.70